Time;durP1;ratioP1;P1;durP2;ratioP2;P2;SDS_P1;SDS_P2;PMS_P1;PMS_P2;Temp;Humidity;BMP_temperature;BMP_pressure;BME280_temperature;BME280_humidity;BME280_pressure;Samples;Min_cycle;Max_cycle;Signal;HPM_P1;HPM_P2
2023/10/30 00:00:58;;;;;;;9.05;3.55;;;21.40;62.70;;;;;;6275155;22;20003;-74
2023/10/30 00:03:23;;;;;;;8.15;3.83;;;21.40;62.50;;;;;;6275560;22;20008;-74
2023/10/30 00:05:49;;;;;;;12.35;3.40;;;21.40;62.60;;;;;;6275318;22;20030;-73
2023/10/30 00:08:16;;;;;;;9.25;3.42;;;21.40;62.70;;;;;;6275348;22;20000;-74
2023/10/30 00:10:42;;;;;;;11.77;3.40;;;21.40;62.70;;;;;;6263930;22;20073;-73
2023/10/30 00:13:08;;;;;;;8.93;3.38;;;21.40;62.80;;;;;;6244027;23;20024;-73
2023/10/30 00:15:34;;;;;;;8.98;3.17;;;21.40;62.80;;;;;;6244063;23;20465;-73
2023/10/30 00:17:59;;;;;;;8.27;3.30;;;21.40;62.80;;;;;;6244052;23;20381;-72
2023/10/30 00:20:26;;;;;;;6.80;2.88;;;21.40;62.70;;;;;;6243760;23;20031;-72
2023/10/30 00:22:52;;;;;;;9.07;2.92;;;21.40;62.50;;;;;;6216763;23;20346;-73
2023/10/30 00:25:18;;;;;;;12.00;3.50;;;21.40;62.70;;;;;;6243543;23;20012;-75
2023/10/30 00:27:43;;;;;;;9.30;3.33;;;21.40;62.60;;;;;;6243619;23;20073;-72
2023/10/30 00:30:09;;;;;;;7.88;2.90;;;21.40;62.60;;;;;;6243623;23;20481;-72
2023/10/30 00:32:35;;;;;;;8.68;3.05;;;21.40;62.90;;;;;;6216940;23;20086;-73
2023/10/30 00:35:01;;;;;;;10.93;3.60;;;21.40;62.40;;;;;;6243614;23;20000;-74
2023/10/30 00:37:27;;;;;;;9.02;3.22;;;21.40;62.60;;;;;;6243392;23;20031;-72
2023/10/30 00:39:53;;;;;;;7.68;3.08;;;21.40;62.70;;;;;;6243683;23;20307;-74
2023/10/30 00:42:22;;;;;;;9.35;3.78;;;21.40;62.60;;;;;;6243934;23;20058;-74
2023/10/30 00:44:48;;;;;;;9.45;3.35;;;21.40;62.70;;;;;;6243682;23;20016;-73
2023/10/30 00:47:14;;;;;;;7.88;3.25;;;21.40;62.70;;;;;;6244020;23;20015;-73
2023/10/30 00:49:39;;;;;;;11.95;3.67;;;21.40;62.80;;;;;;6244052;23;20024;-73
2023/10/30 00:52:05;;;;;;;7.50;3.47;;;21.40;62.80;;;;;;6243582;23;20000;-72
2023/10/30 00:54:32;;;;;;;7.80;3.20;;;21.40;62.80;;;;;;6244152;23;20000;-72
2023/10/30 00:56:57;;;;;;;8.23;3.17;;;21.40;62.90;;;;;;6243558;23;20015;-72
2023/10/30 00:59:23;;;;;;;10.82;3.35;;;21.40;62.70;;;;;;6243732;23;20000;-74
2023/10/30 01:01:49;;;;;;;9.98;3.45;;;21.40;63.10;;;;;;6244008;23;20441;-73
2023/10/30 01:04:14;;;;;;;8.32;3.03;;;21.40;63.00;;;;;;6243723;23;20031;-74
2023/10/30 01:06:40;;;;;;;13.15;2.88;;;21.40;62.90;;;;;;6243430;23;20027;-73
2023/10/30 01:09:06;;;;;;;9.00;2.30;;;21.40;63.50;;;;;;6216716;23;20116;-72
2023/10/30 01:11:31;;;;;;;6.22;2.13;;;21.40;62.70;;;;;;6242969;23;20016;-71
2023/10/30 01:13:57;;;;;;;5.93;1.92;;;21.30;62.30;;;;;;6243802;23;20004;-73
2023/10/30 01:16:23;;;;;;;9.63;2.22;;;21.30;62.40;;;;;;6243680;23;20093;-73
2023/10/30 01:18:48;;;;;;;6.63;2.15;;;21.30;62.50;;;;;;6243763;23;20004;-72
2023/10/30 01:21:15;;;;;;;6.28;1.88;;;21.40;62.60;;;;;;6244397;23;20421;-74
2023/10/30 01:23:40;;;;;;;8.23;1.90;;;21.30;62.30;;;;;;6245473;23;20394;-72
2023/10/30 01:26:06;;;;;;;7.30;2.13;;;21.30;62.40;;;;;;6218415;23;20012;-72
2023/10/30 01:28:32;;;;;;;4.93;1.70;;;21.30;62.40;;;;;;6245728;23;20022;-74
2023/10/30 01:30:57;;;;;;;5.88;2.00;;;21.30;62.50;;;;;;6245586;23;20004;-73
2023/10/30 01:33:24;;;;;;;7.35;1.88;;;21.30;62.90;;;;;;6245477;23;19996;-72
2023/10/30 01:35:50;;;;;;;5.82;2.33;;;21.30;62.80;;;;;;6245035;23;20070;-73
2023/10/30 01:38:15;;;;;;;6.15;2.00;;;21.30;62.80;;;;;;6244970;23;20001;-73
2023/10/30 01:40:49;;;;;;;5.05;1.50;;;21.30;62.80;;;;;;6245235;23;20051;-74
2023/10/30 01:43:14;;;;;;;7.03;1.85;;;21.30;62.90;;;;;;6245532;23;19996;-73
2023/10/30 01:45:40;;;;;;;5.75;1.83;;;21.30;63.20;;;;;;6245127;23;20012;-74
2023/10/30 01:48:06;;;;;;;6.38;1.90;;;21.30;63.40;;;;;;6245282;23;20144;-73
2023/10/30 01:50:33;;;;;;;6.05;2.13;;;21.30;63.60;;;;;;6245531;23;20039;-74
2023/10/30 01:52:59;;;;;;;5.55;1.77;;;21.30;63.90;;;;;;6245379;23;20005;-72
2023/10/30 01:55:25;;;;;;;6.30;2.05;;;21.30;64.00;;;;;;6245348;23;20032;-73
2023/10/30 01:57:51;;;;;;;5.80;2.00;;;21.30;64.00;;;;;;6245266;23;20454;-73
2023/10/30 02:00:17;;;;;;;6.65;2.00;;;21.30;64.00;;;;;;6244929;23;20369;-73
2023/10/30 02:02:43;;;;;;;5.47;1.88;;;21.30;64.10;;;;;;6244994;23;19996;-72
2023/10/30 02:05:09;;;;;;;7.05;1.85;;;21.30;64.30;;;;;;6244986;23;20080;-72
2023/10/30 02:07:36;;;;;;;6.78;1.88;;;21.30;64.20;;;;;;6244995;23;20000;-72
2023/10/30 02:10:05;;;;;;;8.55;2.17;;;21.30;64.40;;;;;;6244832;23;20001;-73
2023/10/30 02:12:31;;;;;;;7.35;1.83;;;21.30;64.60;;;;;;6245132;23;20008;-73
2023/10/30 02:14:57;;;;;;;5.60;2.00;;;21.30;64.80;;;;;;6245044;23;20433;-72
2023/10/30 02:17:22;;;;;;;10.13;1.77;;;21.30;65.00;;;;;;6244979;23;20034;-72
2023/10/30 02:19:48;;;;;;;9.15;2.10;;;21.30;65.20;;;;;;6245284;23;20008;-73
2023/10/30 02:22:14;;;;;;;8.40;2.13;;;21.30;65.10;;;;;;6244920;23;20004;-73
2023/10/30 02:24:40;;;;;;;7.30;1.70;;;21.20;65.30;;;;;;6244836;23;20091;-72
2023/10/30 02:27:06;;;;;;;6.82;1.92;;;21.20;65.50;;;;;;6245061;23;20338;-72
2023/10/30 02:29:31;;;;;;;7.47;2.05;;;21.10;65.50;;;;;;6244653;23;20330;-74
2023/10/30 02:31:57;;;;;;;5.22;1.60;;;21.10;65.60;;;;;;6244994;23;20004;-72
2023/10/30 02:34:23;;;;;;;6.40;1.88;;;21.10;66.00;;;;;;6218189;23;20011;-72
2023/10/30 02:36:48;;;;;;;5.95;2.03;;;21.10;66.00;;;;;;6244687;23;20440;-73
2023/10/30 02:39:14;;;;;;;6.10;1.55;;;21.10;66.20;;;;;;6244845;23;20032;-73
2023/10/30 02:41:40;;;;;;;7.70;1.55;;;21.10;66.50;;;;;;6245049;23;20000;-74
2023/10/30 02:44:06;;;;;;;3.95;1.50;;;21.00;66.80;;;;;;6244850;23;20001;-74
2023/10/30 02:46:31;;;;;;;8.85;2.08;;;21.00;66.40;;;;;;6218188;23;20448;-73
2023/10/30 02:48:57;;;;;;;6.18;1.75;;;21.00;66.40;;;;;;6245123;23;20004;-72
2023/10/30 02:51:23;;;;;;;7.18;1.88;;;21.10;66.40;;;;;;6245257;23;20016;-74
2023/10/30 02:53:48;;;;;;;7.97;2.20;;;21.00;66.60;;;;;;6245102;23;20322;-73
2023/10/30 02:56:15;;;;;;;6.07;2.10;;;21.10;66.70;;;;;;6244923;23;20028;-72
2023/10/30 02:58:40;;;;;;;8.27;2.00;;;21.10;66.50;;;;;;6244839;23;20011;-72
2023/10/30 03:01:06;;;;;;;5.45;2.13;;;21.10;66.40;;;;;;6244838;23;20004;-73
2023/10/30 03:03:32;;;;;;;7.20;2.20;;;21.00;66.60;;;;;;6244380;23;19997;-72
2023/10/30 03:05:57;;;;;;;7.50;2.33;;;21.00;66.70;;;;;;6244568;23;20120;-72
2023/10/30 03:08:26;;;;;;;6.07;2.05;;;21.00;66.80;;;;;;6241877;23;20107;-72
2023/10/30 03:10:52;;;;;;;6.55;2.20;;;21.00;67.20;;;;;;6244449;23;20087;-73
2023/10/30 03:13:17;;;;;;;10.68;2.60;;;20.90;67.20;;;;;;6244410;23;20035;-73
2023/10/30 03:15:45;;;;;;;11.05;2.15;;;20.90;67.40;;;;;;6217749;23;20015;-73
2023/10/30 03:18:11;;;;;;;8.55;2.28;;;20.90;67.60;;;;;;6244328;23;20004;-73
2023/10/30 03:20:37;;;;;;;6.72;2.05;;;20.90;67.50;;;;;;6217304;23;20008;-73
2023/10/30 03:23:03;;;;;;;6.63;2.20;;;20.80;67.30;;;;;;6244170;23;20016;-74
2023/10/30 03:25:28;;;;;;;7.97;1.98;;;20.90;67.80;;;;;;6244315;23;20035;-72
2023/10/30 03:27:54;;;;;;;9.02;2.28;;;20.90;67.80;;;;;;6244152;23;20045;-72
2023/10/30 03:30:20;;;;;;;6.03;2.13;;;20.90;67.70;;;;;;6243745;23;20079;-73
2023/10/30 03:32:45;;;;;;;7.10;2.00;;;20.90;67.60;;;;;;6243991;23;20430;-73
2023/10/30 03:35:11;;;;;;;7.85;2.28;;;20.90;67.90;;;;;;6244163;23;19996;-72
2023/10/30 03:37:37;;;;;;;8.43;2.40;;;20.90;68.00;;;;;;6244561;23;20035;-72
2023/10/30 03:40:03;;;;;;;6.82;1.92;;;20.90;68.00;;;;;;6244434;23;19997;-73
2023/10/30 03:42:29;;;;;;;9.18;2.58;;;20.90;68.00;;;;;;6217371;23;20015;-72
2023/10/30 03:44:54;;;;;;;6.47;2.40;;;20.90;68.10;;;;;;6243656;23;20004;-73
2023/10/30 03:47:20;;;;;;;7.10;2.45;;;20.90;68.00;;;;;;6244488;23;20012;-74
2023/10/30 03:49:46;;;;;;;11.23;2.72;;;20.90;68.10;;;;;;6244419;23;19996;-72
2023/10/30 03:52:11;;;;;;;8.82;2.15;;;20.90;68.20;;;;;;6244012;23;20004;-74
2023/10/30 03:54:37;;;;;;;8.23;1.92;;;20.90;68.20;;;;;;6244091;23;20000;-73
2023/10/30 03:57:03;;;;;;;9.45;2.40;;;20.90;68.10;;;;;;6244929;23;19996;-75
2023/10/30 03:59:29;;;;;;;8.18;2.42;;;20.90;68.00;;;;;;6243856;23;20071;-73
2023/10/30 04:01:54;;;;;;;10.73;2.50;;;20.90;67.90;;;;;;6243979;23;19996;-75
2023/10/30 04:04:20;;;;;;;7.68;2.20;;;20.90;67.70;;;;;;6244110;23;20000;-73
2023/10/30 04:06:46;;;;;;;8.68;2.13;;;20.90;67.90;;;;;;6244539;23;20115;-73
2023/10/30 04:09:11;;;;;;;4.45;1.95;;;20.90;68.10;;;;;;6244060;23;19996;-72
2023/10/30 04:11:37;;;;;;;8.55;2.05;;;20.90;68.10;;;;;;6244034;23;20430;-74
2023/10/30 04:14:03;;;;;;;5.43;2.22;;;20.90;68.00;;;;;;6243933;23;20342;-74
2023/10/30 04:16:29;;;;;;;7.30;2.47;;;20.90;68.00;;;;;;6243570;23;20068;-72
2023/10/30 04:18:55;;;;;;;5.50;2.00;;;20.90;67.80;;;;;;6243655;23;20038;-73
2023/10/30 04:21:21;;;;;;;7.05;2.10;;;20.80;67.90;;;;;;6242606;23;20054;-73
2023/10/30 04:23:47;;;;;;;7.15;1.95;;;20.80;67.70;;;;;;6243958;23;20034;-72
2023/10/30 04:26:12;;;;;;;8.43;2.00;;;20.80;68.00;;;;;;6216478;23;20012;-73
2023/10/30 04:28:38;;;;;;;7.43;2.20;;;20.80;67.80;;;;;;6243930;23;20007;-72
2023/10/30 04:31:08;;;;;;;9.98;2.67;;;20.80;68.10;;;;;;6243966;23;20094;-72
2023/10/30 04:33:34;;;;;;;6.40;1.92;;;20.80;68.00;;;;;;6244089;23;19996;-72
2023/10/30 04:36:03;;;;;;;9.68;2.85;;;20.80;68.20;;;;;;6244064;23;20381;-72
2023/10/30 04:38:32;;;;;;;6.07;2.00;;;20.80;68.20;;;;;;6244594;23;20004;-73
2023/10/30 04:41:02;;;;;;;7.47;2.20;;;20.80;68.30;;;;;;6243976;23;20004;-71
2023/10/30 04:43:27;;;;;;;8.70;2.40;;;20.80;68.20;;;;;;6243698;23;20039;-73
2023/10/30 04:45:53;;;;;;;5.50;1.90;;;20.80;68.30;;;;;;6243909;23;20016;-71
2023/10/30 04:48:19;;;;;;;9.05;2.33;;;20.70;68.20;;;;;;6244195;23;20470;-74
2023/10/30 04:50:45;;;;;;;10.10;2.13;;;20.70;68.30;;;;;;6243918;23;20090;-73
2023/10/30 04:53:10;;;;;;;7.28;2.08;;;20.70;68.30;;;;;;6244108;23;20023;-74
2023/10/30 04:55:36;;;;;;;7.75;2.30;;;20.70;68.30;;;;;;6245221;23;20007;-72
2023/10/30 04:58:02;;;;;;;8.68;1.98;;;20.70;68.20;;;;;;6246016;23;20000;-73
2023/10/30 05:00:27;;;;;;;10.20;2.25;;;20.70;68.10;;;;;;6246111;23;20071;-73
2023/10/30 05:02:53;;;;;;;8.07;2.05;;;20.70;68.20;;;;;;6246027;23;20011;-73
2023/10/30 05:05:19;;;;;;;9.23;2.25;;;20.70;68.20;;;;;;6218844;23;20659;-74
2023/10/30 05:07:45;;;;;;;4.72;1.70;;;20.70;68.20;;;;;;6245663;23;20098;-74
2023/10/30 05:10:13;;;;;;;11.35;2.30;;;20.70;68.00;;;;;;6245798;23;20004;-73
2023/10/30 05:12:39;;;;;;;7.22;2.15;;;20.70;68.10;;;;;;6245934;23;20422;-73
2023/10/30 05:15:08;;;;;;;8.75;2.17;;;20.70;68.00;;;;;;6245340;23;20006;-75
2023/10/30 05:17:39;;;;;;;5.90;2.17;;;20.70;67.90;;;;;;6245529;23;20041;-74
2023/10/30 05:20:06;;;;;;;6.82;2.33;;;20.70;68.00;;;;;;6245712;23;20024;-74
2023/10/30 05:22:34;;;;;;;7.03;2.10;;;20.70;68.10;;;;;;6245524;23;20053;-72
2023/10/30 05:25:03;;;;;;;7.63;2.10;;;20.70;68.00;;;;;;6245132;23;20008;-72
2023/10/30 05:27:30;;;;;;;9.98;2.38;;;20.70;68.10;;;;;;6245738;23;20004;-73
2023/10/30 05:29:56;;;;;;;7.78;2.17;;;20.70;68.20;;;;;;6245654;23;20035;-73
2023/10/30 05:32:21;;;;;;;7.22;2.17;;;20.70;68.20;;;;;;6245842;23;20004;-72
2023/10/30 05:34:48;;;;;;;13.60;2.45;;;20.70;68.10;;;;;;6219079;23;20492;-73
2023/10/30 05:37:14;;;;;;;7.70;2.10;;;20.70;68.20;;;;;;6244560;23;20000;-74
2023/10/30 05:39:40;;;;;;;6.25;2.42;;;20.70;68.20;;;;;;6245701;23;20319;-73
2023/10/30 05:42:06;;;;;;;7.80;2.20;;;20.70;68.30;;;;;;6245635;23;20064;-74
2023/10/30 05:44:32;;;;;;;8.25;2.75;;;20.60;68.00;;;;;;6246052;23;20424;-74
2023/10/30 05:46:58;;;;;;;8.60;2.33;;;20.60;68.10;;;;;;6245195;23;20081;-73
2023/10/30 05:49:27;;;;;;;7.47;2.67;;;20.60;68.20;;;;;;6245569;23;20023;-74
2023/10/30 05:51:54;;;;;;;11.48;3.10;;;20.60;68.20;;;;;;6245822;23;20329;-74
2023/10/30 05:54:20;;;;;;;9.80;3.15;;;20.60;68.10;;;;;;6245760;23;20001;-74
2023/10/30 05:56:46;;;;;;;11.13;3.33;;;20.60;68.20;;;;;;6246266;23;20004;-73
2023/10/30 05:59:12;;;;;;;7.40;2.80;;;20.60;68.40;;;;;;6245591;23;20476;-73
2023/10/30 06:01:38;;;;;;;7.28;2.20;;;20.60;68.10;;;;;;6245598;23;20054;-74
2023/10/30 06:04:04;;;;;;;16.65;4.55;;;20.60;68.20;;;;;;6245813;23;20000;-75
2023/10/30 06:06:30;;;;;;;8.95;3.63;;;20.60;68.20;;;;;;6245420;23;20012;-74
2023/10/30 06:08:55;;;;;;;8.02;2.45;;;20.60;68.30;;;;;;6245540;23;20023;-73
2023/10/30 06:11:21;;;;;;;7.00;2.72;;;20.70;67.90;;;;;;6218341;23;20031;-72
2023/10/30 06:13:47;;;;;;;8.75;2.70;;;20.70;67.90;;;;;;6245881;23;20418;-73
2023/10/30 06:16:18;;;;;;;10.32;3.38;;;20.70;67.80;;;;;;6245598;23;20004;-74
2023/10/30 06:18:44;;;;;;;7.90;2.75;;;20.80;68.00;;;;;;6245932;23;19996;-73
2023/10/30 06:21:14;;;;;;;8.57;2.40;;;20.80;67.90;;;;;;6246042;23;20074;-74
2023/10/30 06:23:40;;;;;;;8.57;3.17;;;20.80;67.90;;;;;;6245684;23;20061;-75
2023/10/30 06:26:13;;;;;;;6.80;2.55;;;20.90;67.70;;;;;;6245315;23;20016;-74
2023/10/30 06:28:40;;;;;;;15.17;3.03;;;20.90;67.70;;;;;;6245921;23;20000;-74
2023/10/30 06:31:16;;;;;;;8.48;3.25;;;20.90;67.60;;;;;;6218312;23;20047;-74
2023/10/30 06:33:43;;;;;;;9.90;2.95;;;21.00;67.90;;;;;;6245780;23;20008;-72
2023/10/30 06:36:08;;;;;;;10.32;2.90;;;21.00;67.30;;;;;;6245525;23;20004;-74
2023/10/30 06:38:35;;;;;;;12.80;3.00;;;21.10;67.30;;;;;;6245212;23;20023;-75
2023/10/30 06:41:04;;;;;;;10.18;2.97;;;21.10;67.10;;;;;;6217886;23;20552;-74
2023/10/30 06:43:32;;;;;;;8.93;3.25;;;21.20;67.40;;;;;;6245746;23;19996;-74
2023/10/30 06:46:02;;;;;;;9.88;3.20;;;21.30;66.40;;;;;;6218250;23;20299;-75
2023/10/30 06:48:28;;;;;;;8.80;3.00;;;21.40;66.30;;;;;;6245838;23;20003;-75
2023/10/30 06:50:55;;;;;;;13.25;3.50;;;21.40;66.20;;;;;;6245334;23;20012;-73
2023/10/30 06:53:21;;;;;;;11.70;3.20;;;21.40;66.00;;;;;;6245418;23;19997;-80
2023/10/30 06:55:46;;;;;;;9.15;3.45;;;21.40;66.10;;;;;;6246164;23;20004;-75
2023/10/30 06:58:13;;;;;;;12.77;3.13;;;21.40;66.60;;;;;;6245412;23;20009;-75
2023/10/30 07:00:38;;;;;;;11.57;3.70;;;21.40;66.00;;;;;;6219045;23;20015;-80
2023/10/30 07:03:04;;;;;;;9.05;3.00;;;21.40;66.20;;;;;;6246563;23;20000;-84
2023/10/30 07:05:30;;;;;;;13.07;3.78;;;21.50;66.30;;;;;;6249074;23;20119;-80
2023/10/30 07:07:55;;;;;;;10.95;3.13;;;21.50;66.30;;;;;;6218508;23;20446;-79
2023/10/30 07:10:21;;;;;;;8.13;2.90;;;21.50;66.00;;;;;;6245313;23;20020;-79
2023/10/30 07:12:47;;;;;;;15.32;3.58;;;21.60;66.20;;;;;;6245772;23;20403;-79
2023/10/30 07:15:13;;;;;;;9.32;3.00;;;21.60;65.50;;;;;;6244838;23;20390;-76
2023/10/30 07:17:39;;;;;;;9.50;2.90;;;21.70;65.20;;;;;;6245383;23;20333;-77
2023/10/30 07:20:05;;;;;;;14.00;3.38;;;21.70;65.10;;;;;;6245037;23;19996;-73
2023/10/30 07:22:30;;;;;;;9.80;2.97;;;21.80;65.10;;;;;;6245389;23;20075;-76
2023/10/30 07:24:56;;;;;;;13.60;3.55;;;21.80;65.00;;;;;;6245307;23;19996;-76
2023/10/30 07:27:22;;;;;;;8.10;2.28;;;21.90;64.70;;;;;;6244909;23;20094;-76
2023/10/30 07:29:48;;;;;;;12.43;2.80;;;21.90;64.60;;;;;;6244797;23;20007;-75
2023/10/30 07:32:14;;;;;;;10.27;3.05;;;21.90;64.60;;;;;;6217319;23;20091;-76
2023/10/30 07:34:43;;;;;;;14.55;3.45;;;22.00;64.60;;;;;;6244797;23;20027;-75
2023/10/30 07:37:10;;;;;;;13.38;3.30;;;22.00;64.40;;;;;;6244463;23;20433;-76
2023/10/30 07:39:35;;;;;;;13.32;3.85;;;22.00;64.10;;;;;;6244472;23;20099;-74
2023/10/30 07:42:01;;;;;;;16.27;3.75;;;22.10;64.10;;;;;;6244330;23;20031;-76
2023/10/30 07:44:27;;;;;;;14.75;3.92;;;22.10;63.90;;;;;;6244128;23;20058;-76
2023/10/30 07:46:53;;;;;;;11.20;3.10;;;22.10;63.90;;;;;;6245057;23;20099;-76
2023/10/30 07:49:19;;;;;;;9.70;3.20;;;22.20;63.90;;;;;;6244221;23;20023;-83
2023/10/30 07:51:45;;;;;;;10.25;3.63;;;22.20;63.60;;;;;;6244688;23;20434;-75
2023/10/30 07:54:11;;;;;;;12.43;3.08;;;22.20;63.40;;;;;;6244355;23;20422;-76
2023/10/30 07:56:38;;;;;;;18.40;3.33;;;22.30;63.50;;;;;;6217425;23;20004;-77
2023/10/30 07:59:07;;;;;;;17.23;3.92;;;22.30;63.10;;;;;;6244695;23;20028;-76
2023/10/30 08:01:34;;;;;;;11.90;3.50;;;22.30;63.10;;;;;;6217513;23;20011;-75
2023/10/30 08:04:00;;;;;;;13.52;3.72;;;22.40;63.10;;;;;;6244092;23;20005;-77
2023/10/30 08:06:27;;;;;;;13.52;3.03;;;22.40;63.10;;;;;;6216699;23;20393;-77
2023/10/30 08:08:53;;;;;;;10.55;3.28;;;22.40;62.70;;;;;;6242511;23;19996;-76
2023/10/30 08:11:19;;;;;;;8.60;2.50;;;22.40;62.50;;;;;;6243925;23;20081;-75
2023/10/30 08:13:45;;;;;;;8.13;2.28;;;22.40;62.40;;;;;;6244305;23;19996;-79
2023/10/30 08:16:11;;;;;;;9.32;2.97;;;22.50;62.70;;;;;;6243747;23;20008;-77
2023/10/30 08:18:38;;;;;;;10.88;2.85;;;22.50;62.90;;;;;;6244306;23;20038;-78
2023/10/30 08:21:04;;;;;;;9.73;2.50;;;22.60;62.20;;;;;;6244283;23;20004;-80
2023/10/30 08:23:30;;;;;;;9.30;3.15;;;22.60;62.20;;;;;;6244183;23;20000;-78
2023/10/30 08:25:56;;;;;;;8.95;2.58;;;22.60;62.00;;;;;;6244188;23;20012;-78
2023/10/30 08:28:22;;;;;;;8.05;2.33;;;22.70;62.20;;;;;;6244488;23;20004;-79
2023/10/30 08:30:47;;;;;;;11.13;2.65;;;22.70;62.30;;;;;;6244089;23;20011;-79
2023/10/30 08:33:13;;;;;;;12.10;2.22;;;22.80;62.10;;;;;;6244525;23;20023;-77
2023/10/30 08:35:39;;;;;;;7.80;2.33;;;22.90;62.30;;;;;;6244211;23;20330;-78
2023/10/30 08:38:05;;;;;;;12.60;2.78;;;23.00;62.00;;;;;;6244547;23;20003;-77
2023/10/30 08:40:30;;;;;;;20.08;3.80;;;23.00;61.90;;;;;;6244490;23;20336;-79
2023/10/30 08:42:56;;;;;;;35.38;5.32;;;23.10;62.50;;;;;;6244591;23;20004;-79
2023/10/30 08:45:22;;;;;;;11.70;3.00;;;23.30;62.70;;;;;;6243999;23;20426;-77
2023/10/30 08:47:48;;;;;;;20.80;3.90;;;23.40;61.90;;;;;;6244328;23;20027;-74
2023/10/30 08:50:14;;;;;;;16.95;2.83;;;23.70;61.50;;;;;;6244276;23;20022;-81
2023/10/30 08:52:40;;;;;;;10.25;3.03;;;23.90;61.60;;;;;;6243730;23;20001;-76
2023/10/30 08:55:07;;;;;;;17.23;3.78;;;24.10;61.80;;;;;;6242126;23;20012;-76
2023/10/30 08:57:33;;;;;;;11.98;2.97;;;24.20;61.10;;;;;;6241701;23;20000;-76
2023/10/30 08:59:58;;;;;;;13.73;2.65;;;24.30;60.70;;;;;;6243275;23;20006;-76
2023/10/30 09:02:24;;;;;;;14.15;3.15;;;24.40;60.60;;;;;;6243648;23;20385;-76
2023/10/30 09:04:50;;;;;;;11.65;2.97;;;24.50;60.20;;;;;;6243813;23;19997;-77
2023/10/30 09:07:16;;;;;;;10.93;2.40;;;24.60;60.20;;;;;;6243106;23;20454;-76
2023/10/30 09:09:42;;;;;;;8.95;2.83;;;24.70;59.80;;;;;;6216216;23;20012;-76
2023/10/30 09:12:08;;;;;;;10.15;2.50;;;24.80;59.40;;;;;;6243822;23;20095;-77
2023/10/30 09:14:34;;;;;;;8.88;2.65;;;24.80;59.30;;;;;;6244633;23;20001;-77
2023/10/30 09:17:00;;;;;;;13.38;2.67;;;24.80;59.40;;;;;;6244260;23;20000;-76
2023/10/30 09:19:27;;;;;;;12.27;2.92;;;24.90;58.90;;;;;;6245102;23;20000;-76
2023/10/30 09:21:52;;;;;;;11.95;3.22;;;24.90;58.60;;;;;;6243677;23;20004;-73
2023/10/30 09:24:18;;;;;;;9.90;2.22;;;25.00;58.40;;;;;;6243140;23;20352;-72
2023/10/30 09:26:44;;;;;;;11.20;2.72;;;25.00;58.20;;;;;;6243677;23;20019;-71
2023/10/30 09:29:10;;;;;;;7.63;2.50;;;25.00;58.30;;;;;;6243957;23;20008;-72
2023/10/30 09:31:36;;;;;;;13.15;2.70;;;25.00;58.50;;;;;;6243948;23;20379;-71
2023/10/30 09:34:03;;;;;;;8.20;2.50;;;25.00;58.50;;;;;;6243190;23;20001;-71
2023/10/30 09:36:29;;;;;;;15.18;2.85;;;25.10;58.40;;;;;;6244072;23;20000;-71
2023/10/30 09:38:54;;;;;;;12.23;2.35;;;25.10;58.50;;;;;;6243739;23;20001;-71
2023/10/30 09:41:20;;;;;;;8.77;2.63;;;25.10;58.20;;;;;;6243816;23;20004;-70
2023/10/30 09:43:50;;;;;;;12.23;2.40;;;25.20;58.10;;;;;;6244916;23;20000;-71
2023/10/30 09:46:17;;;;;;;10.02;2.45;;;25.20;58.10;;;;;;6243672;23;20379;-71
2023/10/30 09:48:48;;;;;;;8.57;2.42;;;25.30;57.20;;;;;;6245736;23;20310;-71
2023/10/30 09:51:16;;;;;;;8.50;2.22;;;25.40;57.10;;;;;;6245256;23;20071;-71
2023/10/30 09:53:42;;;;;;;9.48;2.58;;;25.40;57.00;;;;;;6245590;23;20007;-72
2023/10/30 09:56:08;;;;;;;10.75;2.70;;;25.50;56.90;;;;;;6245715;23;20011;-72
2023/10/30 09:58:37;;;;;;;7.13;2.28;;;25.60;56.90;;;;;;6245340;23;20000;-70
2023/10/30 10:01:04;;;;;;;8.00;2.42;;;25.70;56.60;;;;;;6245529;23;20004;-72
2023/10/30 10:03:29;;;;;;;7.75;2.42;;;25.80;56.30;;;;;;6217991;23;20042;-73
2023/10/30 10:05:59;;;;;;;7.78;2.28;;;25.90;56.40;;;;;;6218285;23;20448;-70
2023/10/30 10:08:26;;;;;;;7.50;2.50;;;26.00;56.20;;;;;;6245456;23;20055;-71
2023/10/30 10:10:57;;;;;;;7.20;2.13;;;26.00;55.90;;;;;;6245115;23;20512;-70
2023/10/30 10:13:24;;;;;;;8.70;2.20;;;26.00;55.60;;;;;;6245019;23;20465;-71
2023/10/30 10:15:50;;;;;;;5.88;2.10;;;26.00;55.70;;;;;;6244740;23;20000;-72
2023/10/30 10:18:27;;;;;;;17.08;2.15;;;26.10;55.40;;;;;;6244927;23;20008;-70
2023/10/30 10:20:56;;;;;;;11.50;2.30;;;26.10;54.80;;;;;;6245043;23;20001;-72
2023/10/30 10:23:22;;;;;;;12.05;2.15;;;26.00;54.50;;;;;;6244054;23;20494;-71
2023/10/30 10:25:55;;;;;;;8.25;2.15;;;26.10;54.60;;;;;;6244929;23;20141;-71
2023/10/30 10:28:25;;;;;;;12.48;2.42;;;26.00;53.70;;;;;;6244999;23;20067;-70
2023/10/30 10:30:53;;;;;;;7.60;2.45;;;26.00;54.10;;;;;;6244801;23;20000;-78
2023/10/30 10:33:24;;;;;;;10.57;2.58;;;26.00;54.10;;;;;;6210401;23;20038;-82
2023/10/30 10:35:54;;;;;;;17.52;3.75;;;26.00;54.00;;;;;;6222079;23;20004;-80
2023/10/30 10:38:21;;;;;;;15.10;2.50;;;25.90;53.70;;;;;;6245884;23;19996;-79
2023/10/30 10:40:48;;;;;;;8.75;2.00;;;26.00;53.80;;;;;;6246422;23;20016;-83
2023/10/30 10:43:21;;;;;;;8.48;1.90;;;26.10;53.30;;;;;;6245486;23;20001;-83
2023/10/30 10:45:48;;;;;;;7.93;2.30;;;26.10;52.20;;;;;;6245046;23;20069;-82
2023/10/30 10:48:14;;;;;;;9.60;2.20;;;26.20;53.10;;;;;;6218318;23;20304;-82
2023/10/30 10:50:41;;;;;;;7.85;2.30;;;26.30;53.00;;;;;;6245092;23;20023;-82
2023/10/30 10:53:07;;;;;;;9.70;2.28;;;26.30;52.80;;;;;;6245422;23;20032;-81
2023/10/30 10:55:47;;;;;;;10.02;2.20;;;26.40;52.60;;;;;;6219044;23;20020;-83
2023/10/30 10:58:46;;;;;;;6.05;1.92;;;26.50;51.70;;;;;;6218824;23;20011;-82
2023/10/30 11:01:19;;;;;;;8.65;2.15;;;26.50;50.90;;;;;;6245418;23;20012;-82
2023/10/30 11:03:45;;;;;;;10.60;2.00;;;26.60;51.90;;;;;;6244975;23;20422;-81
2023/10/30 11:06:13;;;;;;;6.45;2.13;;;26.60;51.40;;;;;;6245155;23;20012;-82
2023/10/30 11:08:47;;;;;;;11.90;2.33;;;26.60;51.00;;;;;;6244650;23;20592;-82
2023/10/30 11:11:35;;;;;;;10.85;2.00;;;26.60;50.00;;;;;;6245571;23;20023;-82
2023/10/30 11:14:08;;;;;;;13.25;2.33;;;26.70;51.20;;;;;;6246159;23;20438;-82
2023/10/30 11:16:43;;;;;;;457.73;45.53;;;26.70;50.50;;;;;;6246080;23;20438;-82
2023/10/30 11:19:10;;;;;;;6.45;2.72;;;26.70;50.80;;;;;;6246594;23;20007;-80
2023/10/30 11:21:35;;;;;;;8.05;1.92;;;26.70;50.60;;;;;;6245619;23;20004;-81
2023/10/30 11:24:02;;;;;;;13.45;2.00;;;26.60;50.70;;;;;;6244814;23;20107;-81
2023/10/30 11:26:36;;;;;;;25.98;2.30;;;26.40;51.20;;;;;;6245240;23;20027;-79
2023/10/30 11:29:10;;;;;;;15.15;2.35;;;26.30;51.10;;;;;;6245876;23;20000;-85
2023/10/30 11:32:03;;;;;;;8.95;1.90;;;26.30;50.90;;;;;;6248949;23;20007;-89
2023/10/30 11:34:30;;;;;;;13.27;2.13;;;26.30;50.60;;;;;;6245263;23;20000;-80
2023/10/30 11:37:04;;;;;;;9.30;1.80;;;26.30;51.20;;;;;;6245010;23;20003;-75
2023/10/30 11:39:35;;;;;;;12.10;2.20;;;26.30;50.90;;;;;;6244920;23;20442;-70
2023/10/30 11:42:00;;;;;;;8.60;2.00;;;26.40;50.50;;;;;;6217970;23;20131;-78
2023/10/30 11:44:32;;;;;;;14.60;2.15;;;26.50;50.30;;;;;;6245108;23;20039;-84
2023/10/30 11:46:59;;;;;;;8.43;2.10;;;26.50;49.80;;;;;;6246689;23;20110;-77
2023/10/30 11:49:32;;;;;;;6.88;1.98;;;26.60;50.20;;;;;;6246065;23;19996;-82
2023/10/30 11:51:58;;;;;;;;;;;26.60;49.80;;;;;;6247691;23;20003;-78
2023/10/30 11:54:33;;;;;;;9.45;2.58;;;26.60;49.20;;;;;;6250371;23;19958;-80
2023/10/30 11:57:00;;;;;;;9.85;1.88;;;26.60;48.50;;;;;;6245076;23;20012;-79
2023/10/30 11:59:27;;;;;;;6.75;2.15;;;26.60;49.10;;;;;;6246024;23;20004;-87
2023/10/30 12:01:55;;;;;;;8.25;2.15;;;26.60;48.90;;;;;;6247310;23;20367;-76
2023/10/30 12:04:25;;;;;;;291.17;30.42;;;26.60;49.00;;;;;;6243750;23;20436;-75
2023/10/30 12:06:52;;;;;;;22.38;3.63;;;26.60;49.40;;;;;;6244387;23;20012;-78
2023/10/30 12:09:18;;;;;;;15.85;2.65;;;26.60;49.40;;;;;;6245020;23;20318;-83
2023/10/30 12:11:44;;;;;;;10.07;2.30;;;26.60;49.50;;;;;;6244524;23;20509;-75
2023/10/30 12:14:13;;;;;;;11.07;2.33;;;26.50;49.20;;;;;;6244746;23;20028;-82
2023/10/30 12:16:44;;;;;;;15.70;2.50;;;26.60;49.50;;;;;;6219466;23;20008;-80
2023/10/30 12:19:10;;;;;;;3.97;1.80;;;26.50;49.20;;;;;;6245570;23;20378;-82
2023/10/30 12:21:36;;;;;;;13.52;2.85;;;26.60;48.30;;;;;;6245340;23;20000;-78
2023/10/30 12:24:01;;;;;;;7.80;2.40;;;26.60;48.30;;;;;;6243975;23;20030;-81
2023/10/30 12:26:27;;;;;;;13.15;2.67;;;26.60;47.90;;;;;;6244513;23;20346;-77
2023/10/30 12:29:00;;;;;;;12.70;3.17;;;26.60;47.90;;;;;;6244689;23;20015;-80
2023/10/30 12:31:29;;;;;;;9.05;3.00;;;26.60;48.30;;;;;;6245076;23;20431;-78
2023/10/30 12:34:18;;;;;;;6.85;2.85;;;26.60;47.30;;;;;;6244392;23;20004;-78
2023/10/30 12:36:44;;;;;;;10.55;2.30;;;26.60;47.70;;;;;;6244902;23;20070;-78
2023/10/30 12:39:17;;;;;;;15.63;2.30;;;26.70;47.40;;;;;;6243954;23;20330;-82
2023/10/30 12:41:47;;;;;;;;;;;26.80;45.90;;;;;;6245022;23;20423;-81